Terminal Aerodrome Forecast
Issued by NWS

Current Version | Previous Version | Text Only | Print | Product List | Glossary Off
Versions: 1 2 3 4 5 6 7 8 9 10 11 12 13 14 15 16 17 18 19 20 21 22 23 24 25

558
FTUS41 KPBZ 260520
TAFHLG
TAF
KHLG 260520Z 2606/2706 26009KT 5SM -SHRA OVC008
     FM260800 27012KT P6SM VCSH OVC008
     FM261500 27009KT P6SM BKN010
     FM261700 26010KT P6SM BKN020
     FM261900 26010KT P6SM BKN030
     FM270000 29005KT P6SM BKN035=

USA.gov is the U.S. government's official web portal to all federal, state and local government web resources and services.